MMHO/HMO METAR and TAF weather

Enter ICAO airport designator
Station Type Date Time Source
MMHO METAR 2021/04/17 02:40 UTC NOAA

MMHO 170240Z 23008KT 10SM SKC 25/01 A2982 RMK SLP096 52013 963 ISOL AC HZY


Station Type Date Time Source
MMHO Decoded METAR 2021/04/17 02:40 UTC NOAA

Hermosillo, Son., Mexico (MMHO) 29-04N 110-57W
Apr 16, 2021 - 10:40 PM EDT / 2021.04.17 0240 UTC
Wind: from the SW (230 degrees) at 9 MPH (8 KT):0
Visibility: 10 mile(s):0
Sky conditions: clear
Temperature: 77 F (25 C)
Dew Point: 33 F (1 C)
Relative Humidity: 20%
Pressure (altimeter): 29.82 in. Hg (1009 hPa)
Pressure tendency: 0.04 inches (1.3 hPa) higher than three hours ago
ob: MMHO 170240Z 23008KT 10SM SKC 25/01 A2982 RMK SLP096 52013 963 ISOL AC HZY
cycle: 2

Station Type Date Time Source
MMHO TAF 2021/04/16 18:57 UTC NOAA

TAF MMHO 161655Z 1618/1718 23006KT P6SM BKN090
BECMG 1620/1621 25012KT SCT090
FM170200 25005KT P6SM SKC
BECMG 1705/1706 00000KT SKC
FM171700 16005KT P6SM SKC

Example: see airport list